createdAt,value
2018-02-10T00:01:45.183Z,2.60
2018-02-10T00:04:13.472Z,2.60
2018-02-10T00:06:41.042Z,2.50
2018-02-10T00:09:08.594Z,2.50
2018-02-10T00:11:36.114Z,2.50
2018-02-10T00:14:03.663Z,2.60
2018-02-10T00:16:31.202Z,2.60
2018-02-10T00:18:58.763Z,2.60
2018-02-10T00:21:26.295Z,2.60
2018-02-10T00:23:53.810Z,2.60
2018-02-10T00:26:21.371Z,2.60
2018-02-10T00:28:49.668Z,2.70
2018-02-10T00:31:17.223Z,2.70
2018-02-10T00:33:45.522Z,2.60
2018-02-10T00:36:13.043Z,2.60
2018-02-10T00:38:40.603Z,2.60
2018-02-10T00:41:08.122Z,2.60
2018-02-10T00:43:35.682Z,2.60
2018-02-10T00:46:05.328Z,2.50
2018-02-10T00:48:32.841Z,2.50
2018-02-10T00:51:00.482Z,2.60
2018-02-10T00:53:28.006Z,2.70
2018-02-10T00:55:56.299Z,2.70
2018-02-10T00:58:23.843Z,2.70
2018-02-10T01:00:52.138Z,2.70
2018-02-10T01:03:19.696Z,2.70
2018-02-10T01:05:47.221Z,2.70
2018-02-10T01:08:14.759Z,2.60
2018-02-10T01:10:42.305Z,2.50
2018-02-10T01:13:09.835Z,2.40
2018-02-10T01:15:37.394Z,2.50
2018-02-10T01:18:04.956Z,2.60
2018-02-10T01:20:32.487Z,2.70
2018-02-10T01:23:00.811Z,2.70
2018-02-10T01:25:28.325Z,2.70
2018-02-10T01:27:56.637Z,2.70
2018-02-10T01:30:24.160Z,2.70
2018-02-10T01:32:52.444Z,2.80
2018-02-10T01:35:20.970Z,2.80
2018-02-10T01:37:48.495Z,2.80
2018-02-10T01:40:16.974Z,2.70
2018-02-10T01:42:44.502Z,2.80
2018-02-10T01:45:12.030Z,2.80
2018-02-10T01:47:41.516Z,2.60
2018-02-10T01:50:20.923Z,2.40
2018-02-10T01:52:48.467Z,2.60
2018-02-10T01:55:16.789Z,2.70
2018-02-10T01:57:44.337Z,2.70
2018-02-10T02:00:11.889Z,2.60
2018-02-10T02:02:39.418Z,2.60
2018-02-10T02:05:06.979Z,2.60
2018-02-10T02:07:34.501Z,2.50
2018-02-10T02:10:02.029Z,2.60
2018-02-10T02:12:29.569Z,2.60
2018-02-10T02:14:57.880Z,2.50
2018-02-10T02:17:25.440Z,2.50
2018-02-10T02:19:52.963Z,2.50
2018-02-10T02:22:20.485Z,2.60
2018-02-10T02:24:48.035Z,2.60
2018-02-10T02:27:15.574Z,2.60
2018-02-10T02:29:45.099Z,2.60
2018-02-10T02:32:13.581Z,2.60
2018-02-10T02:34:41.121Z,2.70
2018-02-10T02:37:08.682Z,2.60
2018-02-10T02:39:36.206Z,2.60
2018-02-10T02:42:03.769Z,2.60
2018-02-10T02:44:31.287Z,2.60
2018-02-10T02:46:58.823Z,2.60
2018-02-10T02:49:26.591Z,2.60
2018-02-10T02:51:54.123Z,2.50
2018-02-10T02:54:21.674Z,2.20
2018-02-10T02:56:49.207Z,2.20
2018-02-10T02:59:17.504Z,2.10
2018-02-10T03:01:45.068Z,2.10
2018-02-10T03:04:12.594Z,2.30
2018-02-10T03:06:40.151Z,2.40
2018-02-10T03:09:07.681Z,2.40
2018-02-10T03:11:35.215Z,2.50
2018-02-10T03:14:04.709Z,2.60
2018-02-10T03:16:33.188Z,2.50
2018-02-10T03:19:02.707Z,2.60
2018-02-10T03:21:30.232Z,2.50
2018-02-10T03:23:58.016Z,2.60
2018-02-10T03:26:25.615Z,2.60
2018-02-10T03:28:54.087Z,2.50
2018-02-10T03:31:21.665Z,2.60
2018-02-10T03:33:49.187Z,2.50
2018-02-10T03:36:17.658Z,2.50
2018-02-10T03:38:45.218Z,2.40
2018-02-10T03:41:12.750Z,2.40
2018-02-10T03:43:40.311Z,2.40
2018-02-10T03:46:08.822Z,2.40
2018-02-10T03:48:36.348Z,2.40
2018-02-10T03:51:03.927Z,2.40
2018-02-10T03:53:31.458Z,2.40
2018-02-10T03:55:59.010Z,2.40
2018-02-10T03:58:26.542Z,2.50
2018-02-10T04:00:54.070Z,2.50
2018-02-10T04:03:21.642Z,2.50
2018-02-10T04:05:49.168Z,2.40
2018-02-10T04:08:16.717Z,2.40
2018-02-10T04:10:44.242Z,2.30
2018-02-10T04:13:11.765Z,2.40
2018-02-10T04:15:40.267Z,2.30
2018-02-10T04:18:07.785Z,2.10
2018-02-10T04:20:35.335Z,2.00
2018-02-10T04:23:02.862Z,1.70
2018-02-10T04:25:30.387Z,1.70
2018-02-10T04:27:57.934Z,1.80
2018-02-10T04:30:26.442Z,1.90
2018-02-10T04:32:54.002Z,1.70
2018-02-10T04:35:21.548Z,1.80
2018-02-10T04:37:49.091Z,1.80
2018-02-10T04:40:16.647Z,1.60
2018-02-10T04:42:44.178Z,1.40
2018-02-10T04:45:13.459Z,1.70
2018-02-10T04:47:41.764Z,1.40
2018-02-10T04:50:09.298Z,1.40
2018-02-10T04:52:37.610Z,1.60
2018-02-10T04:55:05.826Z,1.60
2018-02-10T04:57:33.387Z,1.70
2018-02-10T05:00:01.135Z,1.80
2018-02-10T05:02:28.481Z,1.70
2018-02-10T05:04:56.025Z,1.80
2018-02-10T05:07:24.518Z,1.70
2018-02-10T05:09:54.042Z,1.90
2018-02-10T05:12:21.570Z,1.80
2018-02-10T05:14:49.118Z,1.80
2018-02-10T05:17:16.674Z,1.70
2018-02-10T05:19:44.203Z,1.70
2018-02-10T05:22:11.734Z,1.90
2018-02-10T05:24:39.286Z,2.00
2018-02-10T05:27:06.815Z,2.10
2018-02-10T05:29:34.335Z,2.10
2018-02-10T05:32:01.882Z,2.00
2018-02-10T05:34:29.419Z,1.90
2018-02-10T05:36:56.978Z,1.90
2018-02-10T05:39:24.507Z,1.90
2018-02-10T05:41:52.049Z,1.80
2018-02-10T05:44:20.374Z,1.80
2018-02-10T05:46:47.903Z,1.80
2018-02-10T05:49:15.478Z,1.90
2018-02-10T05:51:43.007Z,1.90
2018-02-10T05:54:10.534Z,1.80
2018-02-10T05:56:38.086Z,1.90
2018-02-10T05:59:05.612Z,2.00
2018-02-10T06:01:33.157Z,2.10
2018-02-10T06:04:00.687Z,2.00
2018-02-10T06:06:29.949Z,2.50
2018-02-10T06:08:57.523Z,2.40
2018-02-10T06:11:25.059Z,2.60
2018-02-10T06:13:52.622Z,2.60
2018-02-10T06:16:20.154Z,2.50
2018-02-10T06:18:47.688Z,2.10
2018-02-10T06:21:15.246Z,2.10
2018-02-10T06:23:42.782Z,2.30
2018-02-10T06:26:10.338Z,2.30
2018-02-10T06:28:37.866Z,2.30
2018-02-10T06:31:05.392Z,2.20
2018-02-10T06:33:32.952Z,2.30
2018-02-10T06:36:01.450Z,2.20
2018-02-10T06:38:29.003Z,2.40
2018-02-10T06:40:56.524Z,2.40
2018-02-10T06:43:24.996Z,2.50
2018-02-10T06:45:52.558Z,2.50
2018-02-10T06:48:21.059Z,2.50
2018-02-10T06:50:49.386Z,2.60
2018-02-10T06:53:16.903Z,2.50
2018-02-10T06:55:44.430Z,2.50
2018-02-10T06:58:12.020Z,2.20
2018-02-10T07:00:40.501Z,2.30
2018-02-10T07:03:08.050Z,2.40
2018-02-10T07:05:36.338Z,2.60
2018-02-10T07:08:03.860Z,2.60
2018-02-10T07:10:34.081Z,2.60
2018-02-10T07:13:01.614Z,2.60
2018-02-10T07:15:29.167Z,2.50
2018-02-10T07:17:56.694Z,2.30
2018-02-10T07:20:24.236Z,2.30
2018-02-10T07:22:52.569Z,2.50
2018-02-10T07:25:20.090Z,2.50
2018-02-10T07:27:47.644Z,2.60
2018-02-10T07:30:15.307Z,2.60
2018-02-10T07:32:42.981Z,2.70
2018-02-10T07:35:10.541Z,2.70
2018-02-10T07:37:39.008Z,2.80
2018-02-10T07:40:06.647Z,2.90
2018-02-10T07:42:34.944Z,2.60
2018-02-10T07:45:02.476Z,2.50
2018-02-10T07:47:30.796Z,2.30
2018-02-10T07:49:58.327Z,2.30
2018-02-10T07:52:25.883Z,2.60
2018-02-10T07:54:53.414Z,2.70
2018-02-10T07:57:20.949Z,2.80
2018-02-10T07:59:48.512Z,3.00
2018-02-10T08:02:16.035Z,2.90
2018-02-10T08:04:43.616Z,2.90
2018-02-10T08:07:11.157Z,3.00
2018-02-10T08:09:38.699Z,3.00
2018-02-10T08:12:06.291Z,3.10
2018-02-10T08:14:33.816Z,2.90
2018-02-10T08:17:01.378Z,2.60
2018-02-10T08:19:28.908Z,2.70
2018-02-10T08:21:56.452Z,2.80
2018-02-10T08:24:23.997Z,2.80
2018-02-10T08:26:51.525Z,2.60
2018-02-10T08:29:19.073Z,2.90
2018-02-10T08:31:46.614Z,3.20
2018-02-10T08:34:14.908Z,3.50
2018-02-10T08:36:42.459Z,3.50
2018-02-10T08:39:09.983Z,3.20
2018-02-10T08:41:37.552Z,2.60
2018-02-10T08:44:05.078Z,2.60
2018-02-10T08:46:32.603Z,2.80
2018-02-10T08:49:01.132Z,3.00
2018-02-10T08:51:28.669Z,3.20
2018-02-10T08:53:56.222Z,3.50
2018-02-10T08:56:23.744Z,3.50
2018-02-10T08:58:52.247Z,3.50
2018-02-10T09:01:19.800Z,3.30
2018-02-10T09:03:47.327Z,3.10
2018-02-10T09:06:15.699Z,3.50
2018-02-10T09:08:44.011Z,3.80
2018-02-10T09:11:11.537Z,3.70
2018-02-10T09:13:41.027Z,4.00
2018-02-10T09:16:10.298Z,4.20
2018-02-10T09:18:37.857Z,4.20
2018-02-10T09:21:05.406Z,4.30
2018-02-10T09:23:32.931Z,4.30
2018-02-10T09:26:02.380Z,4.40
2018-02-10T09:28:29.909Z,4.40
2018-02-10T09:30:57.507Z,4.40
2018-02-10T09:33:25.035Z,4.50
2018-02-10T09:35:53.556Z,4.50
2018-02-10T09:38:23.062Z,4.60
2018-02-10T09:40:51.585Z,4.70
2018-02-10T09:43:20.406Z,4.60
2018-02-10T09:45:47.931Z,3.90
2018-02-10T09:48:15.456Z,4.00
2018-02-10T09:50:43.063Z,4.60
2018-02-10T09:53:11.565Z,4.90
2018-02-10T09:55:39.174Z,5.00
2018-02-10T09:58:07.477Z,5.20
2018-02-10T10:00:34.996Z,5.20
2018-02-10T10:03:02.541Z,5.40
2018-02-10T10:05:30.080Z,5.50
2018-02-10T10:07:57.598Z,5.30
2018-02-10T10:10:25.164Z,4.90
2018-02-10T10:12:53.464Z,4.70
2018-02-10T10:15:21.011Z,4.70
2018-02-10T10:17:48.546Z,4.60
2018-02-10T10:20:17.008Z,4.80
2018-02-10T10:22:44.555Z,4.70
2018-02-10T10:25:12.091Z,4.50
2018-02-10T10:27:39.639Z,4.30
2018-02-10T10:30:07.173Z,4.60
2018-02-10T10:32:35.653Z,4.60
2018-02-10T10:35:03.284Z,5.00
2018-02-10T10:37:30.772Z,5.30
2018-02-10T10:39:59.093Z,4.80
2018-02-10T10:42:26.621Z,4.80
2018-02-10T10:44:54.141Z,4.90
2018-02-10T10:47:21.692Z,4.80
2018-02-10T10:49:49.974Z,4.90
2018-02-10T10:52:17.521Z,4.90
2018-02-10T10:54:45.055Z,5.30
2018-02-10T10:57:12.823Z,5.60
2018-02-10T10:59:40.369Z,5.70
2018-02-10T11:02:08.870Z,5.80
2018-02-10T11:04:36.437Z,5.80
2018-02-10T11:07:03.970Z,5.80
2018-02-10T11:09:31.489Z,5.80
2018-02-10T11:11:59.805Z,6.10
2018-02-10T11:14:27.327Z,6.00
2018-02-10T11:16:54.866Z,6.30
2018-02-10T11:19:22.390Z,6.10
2018-02-10T11:21:49.970Z,6.20
2018-02-10T11:24:17.529Z,5.60
2018-02-10T11:26:45.051Z,5.80
2018-02-10T11:29:12.608Z,5.50
2018-02-10T11:31:40.130Z,5.50
2018-02-10T11:34:08.418Z,5.50
2018-02-10T11:36:36.745Z,5.80
2018-02-10T11:39:04.270Z,5.80
2018-02-10T11:41:31.849Z,5.60
2018-02-10T11:43:59.362Z,5.70
2018-02-10T11:46:26.891Z,5.60
2018-02-10T11:48:54.441Z,5.80
2018-02-10T11:51:22.934Z,5.90
2018-02-10T11:53:50.485Z,5.50
2018-02-10T11:56:18.800Z,5.80
2018-02-10T11:58:47.098Z,5.70
2018-02-10T12:01:14.650Z,5.70
2018-02-10T12:03:43.122Z,5.50
2018-02-10T12:06:10.675Z,5.20
2018-02-10T12:08:38.190Z,5.40
2018-02-10T12:11:05.707Z,5.10
2018-02-10T12:13:33.286Z,5.20
2018-02-10T12:16:00.851Z,5.10
2018-02-10T12:18:30.339Z,5.30
2018-02-10T12:20:58.818Z,5.50
2018-02-10T12:23:26.351Z,5.60
2018-02-10T12:25:55.652Z,5.80
2018-02-10T12:28:23.174Z,5.70
2018-02-10T12:30:50.721Z,5.60
2018-02-10T12:33:19.210Z,5.70
2018-02-10T12:35:46.741Z,5.80
2018-02-10T12:38:14.288Z,5.60
2018-02-10T12:40:42.790Z,5.70
2018-02-10T12:43:10.338Z,5.80
2018-02-10T12:45:38.810Z,5.80
2018-02-10T12:48:12.141Z,5.80
2018-02-10T12:50:39.657Z,5.90
2018-02-10T12:53:07.193Z,6.00
2018-02-10T12:55:34.742Z,5.80
2018-02-10T12:58:02.258Z,5.70
2018-02-10T13:00:29.819Z,5.60
2018-02-10T13:02:57.346Z,5.70
2018-02-10T13:05:24.880Z,5.60
2018-02-10T13:07:52.434Z,5.50
2018-02-10T13:10:19.962Z,5.10
2018-02-10T13:12:49.493Z,4.90
2018-02-10T13:15:17.019Z,5.00
2018-02-10T13:17:44.547Z,5.20
2018-02-10T13:20:12.095Z,5.30
2018-02-10T13:22:39.614Z,5.60
2018-02-10T13:25:07.175Z,5.60
2018-02-10T13:27:34.686Z,5.60
2018-02-10T13:30:02.211Z,5.50
2018-02-10T13:32:29.764Z,5.50
2018-02-10T13:34:57.284Z,5.40
2018-02-10T13:37:24.830Z,5.30
2018-02-10T13:39:52.363Z,5.50
2018-02-10T13:42:20.666Z,4.90
2018-02-10T13:44:48.210Z,4.90
2018-02-10T13:47:16.686Z,4.70
2018-02-10T13:49:44.265Z,4.60
2018-02-10T13:52:11.798Z,4.70
2018-02-10T13:54:40.087Z,5.00
2018-02-10T13:57:07.642Z,5.00
2018-02-10T13:59:36.132Z,5.10
2018-02-10T14:02:03.695Z,5.00
2018-02-10T14:04:32.190Z,5.00
2018-02-10T14:06:59.726Z,5.10
2018-02-10T14:09:27.283Z,5.00
2018-02-10T14:11:54.811Z,4.90
2018-02-10T14:14:22.445Z,4.90
2018-02-10T14:16:49.966Z,5.00
2018-02-10T14:19:17.494Z,5.10
2018-02-10T14:21:45.045Z,5.00
2018-02-10T14:24:12.558Z,5.00
2018-02-10T14:26:40.153Z,5.00
2018-02-10T14:29:07.673Z,5.00
2018-02-10T14:31:35.328Z,5.00
2018-02-10T14:34:02.891Z,4.90
2018-02-10T14:36:30.414Z,5.00
2018-02-10T14:38:58.733Z,5.00
2018-02-10T14:41:26.278Z,4.90
2018-02-10T14:43:53.790Z,4.90
2018-02-10T14:46:21.334Z,5.00
2018-02-10T14:48:48.854Z,5.00
2018-02-10T14:51:16.404Z,5.00
2018-02-10T14:53:43.942Z,4.90
2018-02-10T14:56:11.471Z,4.90
2018-02-10T14:58:39.018Z,4.90
2018-02-10T15:01:07.486Z,4.70
2018-02-10T15:03:35.039Z,4.30
2018-02-10T15:06:03.564Z,4.50
2018-02-10T15:08:32.032Z,4.50
2018-02-10T15:10:59.601Z,4.70
2018-02-10T15:13:27.134Z,4.80
2018-02-10T15:15:54.685Z,4.90
2018-02-10T15:18:22.234Z,5.00
2018-02-10T15:20:50.698Z,4.90
2018-02-10T15:23:18.242Z,5.00
2018-02-10T15:25:46.537Z,4.90
2018-02-10T15:28:14.075Z,4.90
2018-02-10T15:30:53.394Z,4.60
2018-02-10T15:33:33.573Z,4.40
2018-02-10T15:36:02.065Z,4.30
2018-02-10T15:38:29.594Z,4.40
2018-02-10T15:40:57.129Z,4.40
2018-02-10T15:43:24.688Z,4.20
2018-02-10T15:45:53.159Z,4.40
2018-02-10T15:48:20.678Z,4.30
2018-02-10T15:50:48.240Z,4.30
2018-02-10T15:53:15.775Z,4.20
2018-02-10T15:55:43.306Z,4.00
2018-02-10T15:58:10.860Z,4.00
2018-02-10T16:00:38.379Z,4.00
2018-02-10T16:03:05.934Z,4.20
2018-02-10T16:05:33.461Z,4.40
2018-02-10T16:08:00.991Z,4.60
2018-02-10T16:10:28.542Z,4.60
2018-02-10T16:12:56.078Z,4.60
2018-02-10T16:15:23.637Z,4.60
2018-02-10T16:17:51.159Z,4.10
2018-02-10T16:20:20.373Z,4.30
2018-02-10T16:22:47.908Z,4.20
2018-02-10T16:25:15.433Z,4.20
2018-02-10T16:27:42.994Z,4.10
2018-02-10T16:30:10.524Z,4.20
2018-02-10T16:32:38.197Z,4.10
2018-02-10T16:35:06.521Z,4.00
2018-02-10T16:37:34.053Z,4.00
2018-02-10T16:40:01.602Z,4.00
2018-02-10T16:42:29.162Z,4.10
2018-02-10T16:44:56.688Z,4.00
2018-02-10T16:47:24.236Z,4.10
2018-02-10T16:49:52.705Z,3.90
2018-02-10T16:52:21.024Z,3.30
2018-02-10T16:54:48.552Z,3.30
2018-02-10T16:57:16.079Z,3.30
2018-02-10T16:59:43.642Z,3.40
2018-02-10T17:02:12.139Z,3.50
2018-02-10T17:04:40.456Z,3.70
2018-02-10T17:07:07.987Z,3.60
2018-02-10T17:09:35.545Z,3.60
2018-02-10T17:12:03.095Z,3.20
2018-02-10T17:14:32.358Z,3.30
2018-02-10T17:17:00.184Z,3.30
2018-02-10T17:19:27.748Z,3.50
2018-02-10T17:21:55.278Z,3.50
2018-02-10T17:24:22.834Z,3.70
2018-02-10T17:26:50.362Z,3.80
2018-02-10T17:29:17.911Z,3.80
2018-02-10T17:31:45.443Z,3.90
2018-02-10T17:34:12.967Z,3.50
2018-02-10T17:36:43.230Z,3.70
2018-02-10T17:39:10.760Z,3.70
2018-02-10T17:41:38.323Z,3.80
2018-02-10T17:44:05.848Z,3.80
2018-02-10T17:46:33.406Z,3.80
2018-02-10T17:49:00.942Z,3.80
2018-02-10T17:51:28.474Z,3.80
2018-02-10T17:53:56.032Z,3.70
2018-02-10T17:56:23.556Z,3.70
2018-02-10T17:58:51.098Z,3.80
2018-02-10T18:01:19.552Z,3.50
2018-02-10T18:03:47.069Z,3.40
2018-02-10T18:06:14.636Z,3.50
2018-02-10T18:08:42.160Z,3.50
2018-02-10T18:11:09.710Z,3.70
2018-02-10T18:13:37.234Z,3.70
2018-02-10T18:16:04.753Z,3.60
2018-02-10T18:18:33.067Z,3.90
2018-02-10T18:21:00.586Z,3.90
2018-02-10T18:23:30.862Z,3.80
2018-02-10T18:25:58.382Z,3.70
2018-02-10T18:28:25.990Z,3.70
2018-02-10T18:30:53.550Z,3.80
2018-02-10T18:33:21.087Z,3.80
2018-02-10T18:35:49.283Z,3.70
2018-02-10T18:38:17.746Z,3.60
2018-02-10T18:40:46.274Z,3.70
2018-02-10T18:43:14.600Z,3.60
2018-02-10T18:45:43.037Z,3.60
2018-02-10T18:48:10.638Z,3.60
2018-02-10T18:50:39.134Z,3.70
2018-02-10T18:53:06.656Z,3.70
2018-02-10T18:55:34.222Z,3.70
2018-02-10T18:58:01.770Z,3.70
2018-02-10T19:00:29.346Z,3.60
2018-02-10T19:02:56.883Z,3.60
2018-02-10T19:05:24.424Z,3.60
2018-02-10T19:07:52.738Z,3.60
2018-02-10T19:10:21.242Z,3.60
2018-02-10T19:12:48.805Z,3.60
2018-02-10T19:15:16.329Z,3.60
2018-02-10T19:17:43.859Z,3.60
2018-02-10T19:20:12.185Z,3.60
2018-02-10T19:22:39.710Z,3.60
2018-02-10T19:25:07.258Z,3.60
2018-02-10T19:27:34.779Z,3.60
2018-02-10T19:30:02.307Z,3.50
2018-02-10T19:32:29.860Z,3.50
2018-02-10T19:34:57.395Z,3.50
2018-02-10T19:37:24.950Z,3.40
2018-02-10T19:39:52.474Z,3.40
2018-02-10T19:42:20.003Z,3.40
2018-02-10T19:44:47.554Z,3.50
2018-02-10T19:47:15.082Z,3.50
2018-02-10T19:49:42.626Z,3.50
2018-02-10T19:52:11.915Z,3.30
2018-02-10T19:54:40.219Z,3.30
2018-02-10T19:57:08.533Z,3.40
2018-02-10T19:59:37.006Z,3.40
2018-02-10T20:02:04.574Z,3.50
2018-02-10T20:04:32.111Z,3.30
2018-02-10T20:06:59.632Z,3.40
2018-02-10T20:09:27.250Z,3.40
2018-02-10T20:11:54.781Z,3.40
2018-02-10T20:14:22.339Z,3.40
2018-02-10T20:16:50.839Z,3.50
2018-02-10T20:19:19.331Z,3.50
2018-02-10T20:21:46.898Z,3.30
2018-02-10T20:24:15.390Z,3.40
2018-02-10T20:26:42.968Z,3.40
2018-02-10T20:29:10.501Z,3.20
2018-02-10T20:31:38.431Z,3.20
2018-02-10T20:34:06.875Z,3.30
2018-02-10T20:36:34.406Z,3.30
2018-02-10T20:39:01.960Z,3.40
2018-02-10T20:41:29.486Z,3.40
2018-02-10T20:43:57.039Z,3.40
2018-02-10T20:46:26.578Z,3.30
2018-02-10T20:48:54.103Z,3.20
2018-02-10T20:51:22.264Z,3.20
2018-02-10T20:53:50.282Z,3.30
2018-02-10T20:56:18.466Z,3.30
2018-02-10T20:58:46.022Z,3.40
2018-02-10T21:01:13.547Z,3.30
2018-02-10T21:03:41.516Z,3.20
2018-02-10T21:06:09.122Z,3.10
2018-02-10T21:08:37.042Z,2.80
2018-02-10T21:11:04.816Z,2.70
2018-02-10T21:13:32.370Z,2.80
2018-02-10T21:15:59.916Z,3.00
2018-02-10T21:18:27.470Z,2.60
2018-02-10T21:20:55.034Z,2.40
2018-02-10T21:23:22.567Z,2.50
2018-02-10T21:25:50.148Z,2.70
2018-02-10T21:28:17.667Z,2.70
2018-02-10T21:30:47.166Z,2.70
2018-02-10T21:33:14.689Z,2.60
2018-02-10T21:35:42.961Z,2.60
2018-02-10T21:38:10.525Z,2.50
2018-02-10T21:40:39.006Z,2.40
2018-02-10T21:43:07.407Z,2.60
2018-02-10T21:45:35.906Z,2.90
2018-02-10T21:48:03.428Z,3.00
2018-02-10T21:50:32.916Z,3.10
2018-02-10T21:53:01.001Z,3.20
2018-02-10T21:55:28.553Z,3.20
2018-02-10T21:57:56.109Z,3.30
2018-02-10T22:00:23.630Z,3.30
2018-02-10T22:02:51.191Z,3.10
2018-02-10T22:05:18.730Z,2.90
2018-02-10T22:07:46.287Z,3.10
2018-02-10T22:10:13.811Z,3.10
2018-02-10T22:12:41.551Z,3.10
2018-02-10T22:15:09.899Z,3.00
2018-02-10T22:17:37.419Z,3.00
2018-02-10T22:20:05.890Z,3.10
2018-02-10T22:22:33.417Z,3.20
2018-02-10T22:25:00.973Z,3.20
2018-02-10T22:27:28.546Z,3.10
2018-02-10T22:29:56.075Z,3.00
2018-02-10T22:32:26.374Z,3.10
2018-02-10T22:34:53.902Z,3.10
2018-02-10T22:37:21.422Z,3.00
2018-02-10T22:39:48.974Z,2.90
2018-02-10T22:42:16.559Z,3.10
2018-02-10T22:44:44.124Z,3.20
2018-02-10T22:47:11.642Z,3.30
2018-02-10T22:49:39.166Z,3.10
2018-02-10T22:52:06.727Z,3.10
2018-02-10T22:54:34.255Z,3.30
2018-02-10T22:57:02.567Z,3.40
2018-02-10T22:59:30.099Z,3.40
2018-02-10T23:01:57.652Z,3.20
2018-02-10T23:04:25.214Z,3.20
2018-02-10T23:06:52.735Z,3.00
2018-02-10T23:09:23.022Z,2.70
2018-02-10T23:11:50.666Z,2.70
2018-02-10T23:14:18.196Z,2.60
2018-02-10T23:16:45.909Z,2.60
2018-02-10T23:19:13.527Z,2.50
2018-02-10T23:21:43.965Z,2.50
2018-02-10T23:24:11.762Z,2.50
2018-02-10T23:26:39.289Z,2.70
2018-02-10T23:29:06.847Z,2.50
2018-02-10T23:31:34.371Z,2.80
2018-02-10T23:34:02.018Z,2.70
2018-02-10T23:36:29.538Z,3.00
2018-02-10T23:38:57.078Z,3.00
2018-02-10T23:41:25.390Z,3.20
2018-02-10T23:43:53.872Z,3.20
2018-02-10T23:46:21.435Z,3.20
2018-02-10T23:48:48.958Z,3.10
2018-02-10T23:51:16.491Z,2.80
2018-02-10T23:53:44.043Z,2.70
2018-02-10T23:56:11.573Z,2.70
2018-02-10T23:58:39.132Z,2.80
